Time;durP1;ratioP1;P1;durP2;ratioP2;P2;SDS_P1;SDS_P2;PMS_P1;PMS_P2;Temp;Humidity;BMP_temperature;BMP_pressure;BME280_temperature;BME280_humidity;BME280_pressure;Samples;Min_cycle;Max_cycle;Signal;HPM_P1;HPM_P2
2022/04/23 00:00:27;;;;;;;26.55;15.98;;;6.30;99.90;;;;;;5025092;28;20061;-86
2022/04/23 00:02:53;;;;;;;26.50;16.40;;;6.30;99.90;;;;;;5024207;28;20477;-86
2022/04/23 00:05:19;;;;;;;25.58;13.77;;;6.40;99.90;;;;;;5026688;28;20061;-86
2022/04/23 00:07:44;;;;;;;25.85;15.48;;;6.40;99.90;;;;;;5027305;28;20046;-85
2022/04/23 00:10:13;;;;;;;28.77;16.80;;;6.40;99.90;;;;;;5010976;28;20098;-86
2022/04/23 00:12:40;;;;;;;27.33;15.98;;;6.40;99.90;;;;;;5026653;28;20394;-85
2022/04/23 00:15:07;;;;;;;26.75;14.75;;;6.40;99.90;;;;;;5028540;28;20172;-85
2022/04/23 00:17:33;;;;;;;28.45;15.57;;;6.40;99.90;;;;;;5028764;28;20034;-87
2022/04/23 00:20:00;;;;;;;29.30;15.45;;;6.30;99.90;;;;;;5026495;28;20040;-84
2022/04/23 00:22:26;;;;;;;26.15;15.43;;;6.20;99.90;;;;;;5028918;28;20056;-86
2022/04/23 00:24:54;;;;;;;25.40;16.52;;;6.20;99.90;;;;;;5026408;28;20042;-87
2022/04/23 00:27:19;;;;;;;29.13;16.00;;;6.10;99.90;;;;;;5025196;28;20542;-85
2022/04/23 00:29:45;;;;;;;28.55;15.65;;;6.20;99.90;;;;;;5024662;28;20034;-86
2022/04/23 00:32:11;;;;;;;27.42;15.95;;;6.20;99.90;;;;;;5049800;28;20094;-86
2022/04/23 00:34:36;;;;;;;28.13;15.98;;;6.20;99.90;;;;;;5040212;28;20056;-86
2022/04/23 00:37:03;;;;;;;31.90;17.08;;;6.20;99.90;;;;;;5063984;28;20715;-87
2022/04/23 00:39:29;;;;;;;33.08;17.95;;;6.50;99.90;;;;;;5025212;28;20029;-86
2022/04/23 00:42:00;;;;;;;28.38;17.67;;;6.60;99.90;;;;;;5048479;28;20043;-86
2022/04/23 00:44:26;;;;;;;31.35;18.08;;;6.80;99.90;;;;;;5056748;28;20021;-86
2022/04/23 00:46:52;;;;;;;31.35;19.10;;;6.90;99.90;;;;;;5063286;28;20111;-89
2022/04/23 00:49:17;;;;;;;29.60;17.00;;;7.00;99.90;;;;;;5054479;28;20369;-85
2022/04/23 00:51:43;;;;;;;31.20;18.65;;;7.00;99.90;;;;;;5074173;28;20044;-85
2022/04/23 00:54:10;;;;;;;33.63;19.88;;;7.10;99.90;;;;;;5038533;28;20395;-86
2022/04/23 00:56:37;;;;;;;35.33;20.45;;;7.00;99.90;;;;;;5049201;28;20083;-85
2022/04/23 00:59:12;;;;;;;36.22;22.25;;;7.00;99.90;;;;;;5053989;28;20064;-89
2022/04/23 01:01:41;;;;;;;32.75;20.33;;;7.20;99.90;;;;;;5047848;28;20045;-85
2022/04/23 01:04:08;;;;;;;32.63;18.60;;;7.20;99.90;;;;;;5052390;28;20029;-85
2022/04/23 01:06:37;;;;;;;37.10;22.15;;;7.30;99.90;;;;;;5046575;28;20021;-85
2022/04/23 01:09:08;;;;;;;41.38;21.77;;;7.40;99.90;;;;;;5049911;28;20029;-86
2022/04/23 01:11:36;;;;;;;39.20;21.77;;;7.40;99.90;;;;;;5045079;28;20044;-84
2022/04/23 01:14:02;;;;;;;39.40;26.50;;;7.50;99.90;;;;;;5097457;28;20089;-85
2022/04/23 01:16:28;;;;;;;41.90;24.42;;;7.50;99.90;;;;;;5058918;28;20489;-85
2022/04/23 01:18:54;;;;;;;43.00;25.02;;;7.50;99.90;;;;;;5055881;28;20032;-88
2022/04/23 01:21:23;;;;;;;42.05;24.70;;;7.60;99.90;;;;;;5055537;28;20052;-86
2022/04/23 01:23:52;;;;;;;41.78;25.10;;;7.60;99.90;;;;;;5055260;28;20021;-85
2022/04/23 01:26:29;;;;;;;42.80;24.23;;;7.70;99.90;;;;;;5056115;28;20017;-85
2022/04/23 01:28:57;;;;;;;50.85;30.08;;;7.80;99.90;;;;;;5067582;28;20029;-91
2022/04/23 01:31:23;;;;;;;45.53;25.00;;;7.80;99.90;;;;;;5049711;28;20047;-85
2022/04/23 01:33:49;;;;;;;47.60;26.42;;;7.90;99.90;;;;;;5048207;28;20055;-84
2022/04/23 01:36:17;;;;;;;46.92;25.58;;;7.90;99.90;;;;;;5064017;28;20033;-85
2022/04/23 01:38:44;;;;;;;46.72;26.73;;;8.00;99.90;;;;;;5051072;28;20029;-85
2022/04/23 01:41:10;;;;;;;45.10;24.08;;;8.00;99.90;;;;;;5050819;28;20037;-85
2022/04/23 01:43:36;;;;;;;45.58;26.75;;;8.00;99.90;;;;;;5092880;28;20248;-85
2022/04/23 01:46:02;;;;;;;41.33;24.23;;;7.90;99.90;;;;;;5060065;28;20037;-85
2022/04/23 01:48:28;;;;;;;47.58;29.30;;;7.90;99.90;;;;;;5040053;28;20617;-85
2022/04/23 01:50:55;;;;;;;40.50;21.65;;;7.80;99.90;;;;;;5058510;28;20029;-85
2022/04/23 01:53:22;;;;;;;45.50;25.83;;;8.00;99.90;;;;;;5052025;28;20120;-85
2022/04/23 01:55:53;;;;;;;45.50;27.55;;;8.00;99.90;;;;;;5048993;28;20057;-85
2022/04/23 01:58:19;;;;;;;50.35;28.52;;;8.10;99.90;;;;;;5055210;28;20104;-85
2022/04/23 02:00:45;;;;;;;48.83;26.80;;;8.10;99.90;;;;;;5083479;28;20578;-85
2022/04/23 02:03:11;;;;;;;45.15;26.48;;;8.20;99.90;;;;;;5087904;28;20033;-85
2022/04/23 02:05:37;;;;;;;46.58;26.15;;;8.20;99.90;;;;;;5066884;28;20442;-86
2022/04/23 02:08:03;;;;;;;47.78;25.05;;;8.10;99.90;;;;;;5054199;28;20480;-84
2022/04/23 02:10:28;;;;;;;49.65;26.85;;;8.20;99.90;;;;;;5068280;28;20083;-85
2022/04/23 02:12:54;;;;;;;46.13;26.77;;;8.30;99.90;;;;;;5041213;28;20029;-84
2022/04/23 02:15:20;;;;;;;46.92;26.77;;;8.20;99.90;;;;;;5061906;28;20029;-85
2022/04/23 02:17:50;;;;;;;46.65;25.90;;;8.20;99.90;;;;;;5059925;28;20035;-86
2022/04/23 02:20:16;;;;;;;49.08;27.52;;;8.30;99.90;;;;;;5060650;28;20280;-85
2022/04/23 02:22:44;;;;;;;44.65;25.75;;;8.20;99.90;;;;;;5063179;28;20082;-85
2022/04/23 02:25:11;;;;;;;45.83;26.42;;;8.10;99.90;;;;;;5060541;28;20017;-84
2022/04/23 02:27:44;;;;;;;48.75;27.55;;;8.10;99.90;;;;;;5051927;28;20033;-84
2022/04/23 02:30:12;;;;;;;44.00;24.83;;;8.30;99.90;;;;;;5040996;28;20543;-84
2022/04/23 02:32:38;;;;;;;45.50;25.85;;;8.30;99.90;;;;;;5088498;28;20050;-84
2022/04/23 02:35:05;;;;;;;45.13;28.48;;;8.30;99.90;;;;;;5067299;28;20044;-84
2022/04/23 02:37:34;;;;;;;42.75;25.58;;;8.30;99.90;;;;;;5055419;28;20036;-87
2022/04/23 02:40:00;;;;;;;44.03;26.77;;;8.30;99.90;;;;;;5054992;28;20781;-85
2022/04/23 02:42:26;;;;;;;43.15;24.63;;;8.30;99.90;;;;;;5088349;28;20124;-84
2022/04/23 02:44:51;;;;;;;43.42;24.77;;;8.30;99.90;;;;;;5052166;28;20100;-85
2022/04/23 02:47:17;;;;;;;42.50;24.52;;;8.20;99.90;;;;;;5065889;28;20986;-86
2022/04/23 02:49:43;;;;;;;42.50;23.45;;;8.30;99.90;;;;;;5061160;28;20053;-84
2022/04/23 02:52:08;;;;;;;38.88;24.17;;;8.30;99.90;;;;;;5060511;28;20464;-85
2022/04/23 02:54:34;;;;;;;42.67;24.17;;;8.30;99.90;;;;;;5061154;28;20640;-85
2022/04/23 02:57:01;;;;;;;41.72;24.35;;;8.30;99.90;;;;;;5057312;28;20085;-85
2022/04/23 02:59:26;;;;;;;44.90;25.67;;;8.30;99.90;;;;;;5056604;28;20021;-89
2022/04/23 03:01:52;;;;;;;43.55;24.45;;;8.40;99.90;;;;;;5061098;28;20047;-84
2022/04/23 03:04:19;;;;;;;43.90;25.48;;;8.40;99.90;;;;;;5053169;28;20037;-85
2022/04/23 03:06:45;;;;;;;38.50;24.02;;;8.30;99.90;;;;;;5035014;28;20089;-85
2022/04/23 03:09:11;;;;;;;47.53;24.58;;;8.20;99.90;;;;;;5046688;28;20021;-86
2022/04/23 03:11:39;;;;;;;41.67;23.77;;;8.10;99.90;;;;;;5054154;28;20040;-84
2022/04/23 03:14:06;;;;;;;40.97;23.85;;;8.20;99.90;;;;;;5063620;28;20032;-84
2022/04/23 03:16:32;;;;;;;34.88;20.65;;;8.20;99.90;;;;;;5058806;28;20037;-85
2022/04/23 03:18:57;;;;;;;35.20;20.45;;;8.30;99.90;;;;;;5078416;28;20036;-85
2022/04/23 03:21:23;;;;;;;35.95;20.48;;;8.30;99.90;;;;;;5054888;28;20090;-87
2022/04/23 03:23:48;;;;;;;37.20;20.70;;;8.30;99.90;;;;;;5066376;28;20123;-84
2022/04/23 03:26:15;;;;;;;34.33;20.48;;;8.20;99.90;;;;;;5061378;28;20472;-85
2022/04/23 03:28:41;;;;;;;33.72;18.38;;;8.30;99.90;;;;;;5060232;28;20549;-85
2022/04/23 03:31:08;;;;;;;35.40;20.15;;;8.20;99.90;;;;;;5055350;28;20071;-84
2022/04/23 03:33:34;;;;;;;38.78;22.42;;;8.10;99.90;;;;;;5056787;28;20053;-85
2022/04/23 03:36:00;;;;;;;40.15;21.88;;;8.20;99.90;;;;;;5073201;28;20025;-84
2022/04/23 03:38:26;;;;;;;38.45;21.98;;;8.20;99.90;;;;;;5093607;28;20016;-83
2022/04/23 03:40:55;;;;;;;36.97;21.50;;;8.30;99.90;;;;;;5055052;28;20056;-85
2022/04/23 03:43:21;;;;;;;39.08;21.77;;;8.30;99.90;;;;;;5080485;28;20036;-85
2022/04/23 03:45:47;;;;;;;34.35;21.92;;;8.40;99.90;;;;;;5062223;28;20029;-85
2022/04/23 03:48:14;;;;;;;39.45;24.02;;;8.30;99.90;;;;;;5044824;28;20021;-85
2022/04/23 03:50:40;;;;;;;41.75;23.48;;;8.40;99.90;;;;;;5053999;28;20025;-84
2022/04/23 03:53:06;;;;;;;33.28;21.98;;;8.40;99.90;;;;;;5063363;28;20095;-85
2022/04/23 03:55:32;;;;;;;34.67;19.95;;;8.20;99.90;;;;;;5050346;28;20104;-85
2022/04/23 03:57:58;;;;;;;35.92;20.65;;;8.20;99.90;;;;;;5059033;28;20115;-85
2022/04/23 04:00:24;;;;;;;35.83;20.92;;;8.00;99.90;;;;;;5056201;28;20575;-85
2022/04/23 04:02:50;;;;;;;40.25;22.35;;;8.00;99.90;;;;;;5063040;28;20039;-85
2022/04/23 04:05:16;;;;;;;40.63;22.70;;;8.00;99.90;;;;;;5059551;28;20021;-85
2022/04/23 04:07:43;;;;;;;38.22;21.20;;;8.10;99.90;;;;;;5057723;28;20036;-85
2022/04/23 04:10:14;;;;;;;37.83;19.85;;;8.10;99.90;;;;;;5066614;28;20032;-85
2022/04/23 04:12:40;;;;;;;38.17;20.17;;;8.10;99.90;;;;;;5055528;28;20052;-86
2022/04/23 04:15:07;;;;;;;37.25;21.05;;;8.00;99.90;;;;;;5056945;28;20072;-85
2022/04/23 04:17:32;;;;;;;36.28;19.52;;;8.00;99.90;;;;;;5062282;28;20036;-85
2022/04/23 04:19:59;;;;;;;36.00;19.15;;;8.00;99.90;;;;;;5055464;28;20029;-84
2022/04/23 04:22:24;;;;;;;40.60;22.20;;;8.00;99.90;;;;;;5054171;28;20032;-86
2022/04/23 04:24:50;;;;;;;33.88;19.15;;;7.90;99.90;;;;;;5055556;28;20326;-85
2022/04/23 04:27:16;;;;;;;39.47;21.38;;;8.00;99.90;;;;;;5057094;28;20480;-85
2022/04/23 04:29:43;;;;;;;40.53;20.50;;;7.90;99.90;;;;;;5045381;28;20059;-84
2022/04/23 04:32:09;;;;;;;28.58;18.05;;;7.90;99.90;;;;;;5055757;28;20082;-85
2022/04/23 04:34:35;;;;;;;38.00;20.00;;;7.80;99.90;;;;;;5053182;28;20041;-86
2022/04/23 04:37:11;;;;;;;31.95;19.35;;;7.70;99.90;;;;;;5045944;28;20111;-85
2022/04/23 04:39:38;;;;;;;33.70;20.85;;;7.70;99.90;;;;;;5045061;28;20475;-84
2022/04/23 04:42:05;;;;;;;39.17;20.45;;;7.70;99.90;;;;;;5044563;28;20069;-84
2022/04/23 04:44:31;;;;;;;37.33;21.58;;;7.70;99.90;;;;;;5040304;28;20484;-85
2022/04/23 04:46:57;;;;;;;36.20;20.30;;;7.60;99.90;;;;;;5039993;28;20116;-85
2022/04/23 04:49:23;;;;;;;37.63;21.15;;;7.60;99.90;;;;;;5051939;28;20395;-84
2022/04/23 04:51:49;;;;;;;34.95;19.08;;;7.60;99.90;;;;;;5063194;28;20111;-84
2022/04/23 04:54:18;;;;;;;34.67;19.65;;;7.60;99.90;;;;;;5048109;28;20021;-84
2022/04/23 04:56:53;;;;;;;35.28;18.45;;;7.70;99.90;;;;;;5062121;28;20101;-85
2022/04/23 04:59:20;;;;;;;36.03;19.73;;;7.60;99.90;;;;;;5038371;28;20047;-85
2022/04/23 05:01:47;;;;;;;38.42;19.55;;;7.40;99.90;;;;;;5041563;28;20045;-85
2022/04/23 05:04:12;;;;;;;32.92;18.58;;;7.50;99.90;;;;;;5043467;28;20058;-86
2022/04/23 05:06:38;;;;;;;36.33;17.15;;;7.40;99.90;;;;;;5045056;28;20116;-85
2022/04/23 05:09:04;;;;;;;35.30;19.63;;;7.50;99.90;;;;;;5056402;28;20021;-84
2022/04/23 05:11:29;;;;;;;38.22;19.23;;;7.40;99.90;;;;;;5040711;28;20492;-85
2022/04/23 05:13:55;;;;;;;34.25;18.30;;;7.40;99.90;;;;;;5054764;28;20025;-85
2022/04/23 05:16:21;;;;;;;33.53;18.77;;;7.40;99.90;;;;;;5036517;28;20041;-85
2022/04/23 05:18:46;;;;;;;34.40;20.00;;;7.40;99.90;;;;;;5046771;28;20029;-86
2022/04/23 05:21:12;;;;;;;34.10;19.33;;;7.40;99.90;;;;;;5047616;28;20588;-85
2022/04/23 05:23:38;;;;;;;33.15;19.23;;;7.40;99.90;;;;;;5059218;28;20115;-85
2022/04/23 05:26:05;;;;;;;29.63;14.40;;;7.40;99.90;;;;;;5058609;28;20032;-85
2022/04/23 05:28:32;;;;;;;35.90;19.48;;;7.50;99.90;;;;;;5055289;28;20111;-86
2022/04/23 05:30:58;;;;;;;37.72;18.30;;;7.50;99.90;;;;;;5071552;28;20490;-85
2022/04/23 05:33:23;;;;;;;32.67;18.35;;;7.60;99.90;;;;;;5083928;28;20116;-85
2022/04/23 05:35:49;;;;;;;34.30;16.52;;;7.50;99.90;;;;;;5048335;28;20087;-85
2022/04/23 05:38:19;;;;;;;36.13;18.80;;;7.40;99.90;;;;;;5042564;28;20037;-85
2022/04/23 05:40:44;;;;;;;32.03;18.25;;;7.30;99.90;;;;;;5053408;28;20029;-86
2022/04/23 05:43:10;;;;;;;34.63;18.23;;;7.30;99.90;;;;;;5063815;28;20047;-85
2022/04/23 05:45:36;;;;;;;30.13;15.10;;;7.30;99.90;;;;;;5065859;28;20433;-85
2022/04/23 05:48:01;;;;;;;36.63;19.77;;;7.20;99.90;;;;;;5047223;28;20025;-85
2022/04/23 05:50:27;;;;;;;34.70;18.95;;;7.30;99.90;;;;;;5052429;28;20035;-85
2022/04/23 05:52:53;;;;;;;31.23;16.52;;;7.30;99.90;;;;;;5073860;28;20043;-85
2022/04/23 05:55:18;;;;;;;38.42;17.25;;;7.30;99.90;;;;;;5060114;28;20072;-86
2022/04/23 05:57:44;;;;;;;36.50;19.15;;;7.20;99.90;;;;;;5057143;28;20033;-85
2022/04/23 06:00:11;;;;;;;30.42;15.48;;;7.10;99.90;;;;;;5087617;28;20043;-85
2022/04/23 06:02:37;;;;;;;34.10;17.85;;;7.20;99.90;;;;;;5053221;28;20094;-86
2022/04/23 06:05:04;;;;;;;36.55;17.17;;;7.10;99.90;;;;;;5052746;28;20578;-85
2022/04/23 06:07:31;;;;;;;35.95;16.98;;;7.20;99.90;;;;;;5056456;28;20155;-85
2022/04/23 06:09:56;;;;;;;36.03;18.85;;;7.20;99.90;;;;;;5051985;28;20021;-85
2022/04/23 06:12:22;;;;;;;32.92;15.07;;;7.30;99.90;;;;;;5056110;28;20036;-85
2022/04/23 06:14:49;;;;;;;37.08;17.95;;;7.30;99.90;;;;;;5062626;28;20060;-85
2022/04/23 06:17:15;;;;;;;35.80;17.63;;;7.40;99.90;;;;;;5051172;28;20144;-86
2022/04/23 06:19:45;;;;;;;37.72;17.70;;;7.30;99.90;;;;;;5058993;28;20516;-85
2022/04/23 06:22:11;;;;;;;40.20;19.63;;;7.30;99.90;;;;;;5079750;28;20056;-84
2022/04/23 06:24:36;;;;;;;35.47;19.10;;;7.40;99.90;;;;;;5056445;28;20067;-84
2022/04/23 06:27:02;;;;;;;44.17;20.23;;;7.30;99.90;;;;;;5058644;28;20036;-85
2022/04/23 06:29:28;;;;;;;38.20;20.08;;;7.30;99.90;;;;;;5059702;28;20039;-86
2022/04/23 06:31:53;;;;;;;38.58;19.75;;;7.20;99.90;;;;;;5028022;28;20552;-85
2022/04/23 06:34:20;;;;;;;40.08;17.25;;;7.20;99.90;;;;;;5048241;28;20033;-84
2022/04/23 06:36:45;;;;;;;41.33;21.90;;;7.20;99.90;;;;;;5045776;28;20063;-84
2022/04/23 06:39:11;;;;;;;36.25;18.48;;;7.30;99.90;;;;;;5032092;28;20492;-84
2022/04/23 06:41:37;;;;;;;37.05;19.60;;;7.40;99.90;;;;;;5048387;28;20450;-86
2022/04/23 06:44:03;;;;;;;34.20;17.23;;;7.40;99.90;;;;;;5047826;28;20036;-84
2022/04/23 06:46:28;;;;;;;37.88;17.58;;;7.40;99.90;;;;;;5032692;28;20025;-84
2022/04/23 06:48:54;;;;;;;34.90;18.05;;;7.40;99.90;;;;;;5047476;28;20526;-83
2022/04/23 06:51:23;;;;;;;35.63;18.80;;;7.40;99.90;;;;;;5031154;28;20747;-83
2022/04/23 06:53:48;;;;;;;37.75;17.33;;;7.30;99.90;;;;;;5044478;28;20053;-86
2022/04/23 06:56:14;;;;;;;39.45;19.88;;;7.40;99.90;;;;;;5047518;28;20029;-85
2022/04/23 06:58:39;;;;;;;37.10;19.75;;;7.40;99.90;;;;;;5039419;28;20483;-84
2022/04/23 07:01:06;;;;;;;38.33;19.63;;;7.50;99.90;;;;;;5033139;28;20075;-84
2022/04/23 07:03:32;;;;;;;42.03;21.60;;;7.40;99.90;;;;;;5054930;28;20033;-84
2022/04/23 07:05:57;;;;;;;37.58;19.63;;;7.50;99.90;;;;;;5049653;28;20028;-86
2022/04/23 07:08:23;;;;;;;36.20;19.73;;;7.50;99.90;;;;;;5051442;28;20028;-84
2022/04/23 07:10:49;;;;;;;43.33;21.08;;;7.60;99.90;;;;;;5054706;28;20407;-83
2022/04/23 07:13:18;;;;;;;37.30;17.60;;;7.80;99.90;;;;;;5043095;28;20024;-83
2022/04/23 07:15:46;;;;;;;40.30;21.13;;;7.80;99.90;;;;;;5051300;28;20403;-84
2022/04/23 07:18:12;;;;;;;37.22;22.20;;;7.80;99.90;;;;;;5044241;28;20038;-85
2022/04/23 07:20:41;;;;;;;35.20;18.10;;;7.70;99.90;;;;;;5056271;28;20029;-83
2022/04/23 07:25:52;;;;;;;37.50;16.65;;;7.90;99.90;;;;;;5058500;28;20091;-85
2022/04/23 07:28:21;;;;;;;40.45;19.80;;;7.80;99.90;;;;;;5057578;28;20024;-84
2022/04/23 07:30:47;;;;;;;36.53;19.70;;;7.90;99.90;;;;;;5053150;28;20033;-83
2022/04/23 07:38:47;;;;;;;38.80;19.67;;;8.00;99.90;;;;;;5050138;28;20043;-83
2022/04/23 07:41:12;;;;;;;33.88;19.10;;;7.90;99.90;;;;;;5050766;28;20108;-84
2022/04/23 07:43:39;;;;;;;36.17;18.90;;;7.90;99.90;;;;;;5062171;28;20112;-86
2022/04/23 07:46:04;;;;;;;33.28;16.10;;;8.00;99.90;;;;;;5047489;28;20104;-84
2022/04/23 07:48:33;;;;;;;32.30;15.48;;;8.00;99.90;;;;;;5066880;28;20120;-85
2022/04/23 07:51:05;;;;;;;36.30;18.45;;;7.90;99.90;;;;;;5054823;28;20364;-84
2022/04/23 07:53:30;;;;;;;36.83;18.52;;;8.00;99.90;;;;;;5049903;28;20029;-86
2022/04/23 07:55:56;;;;;;;31.85;17.55;;;8.10;99.90;;;;;;5031682;28;20079;-85
2022/04/23 07:58:22;;;;;;;34.90;18.80;;;8.00;99.90;;;;;;5048810;28;20319;-83
2022/04/23 08:00:48;;;;;;;34.63;17.75;;;8.00;99.90;;;;;;5069702;28;20041;-84
2022/04/23 08:03:16;;;;;;;36.25;18.10;;;7.90;99.90;;;;;;5070712;28;20025;-84
2022/04/23 08:05:42;;;;;;;37.00;19.98;;;7.80;99.90;;;;;;5051696;28;20029;-85
2022/04/23 08:08:08;;;;;;;35.30;19.50;;;7.80;99.90;;;;;;5045960;28;20037;-84
2022/04/23 08:10:34;;;;;;;38.80;20.08;;;8.00;99.90;;;;;;5080038;28;20419;-84
2022/04/23 08:13:00;;;;;;;34.00;19.77;;;8.10;99.90;;;;;;5056866;28;20040;-83
2022/04/23 08:15:26;;;;;;;37.92;17.73;;;8.10;99.90;;;;;;5079488;28;20099;-88
2022/04/23 08:17:52;;;;;;;39.08;18.10;;;8.10;99.90;;;;;;5073342;28;20498;-89
2022/04/23 08:20:18;;;;;;;40.28;20.27;;;8.10;99.90;;;;;;5058999;28;20037;-85
2022/04/23 08:22:49;;;;;;;35.97;18.63;;;8.10;99.90;;;;;;5054830;28;20044;-84
2022/04/23 08:25:14;;;;;;;39.83;20.02;;;8.20;99.90;;;;;;5051911;28;20403;-85
2022/04/23 08:27:54;;;;;;;33.40;18.30;;;8.30;99.90;;;;;;5051999;28;20135;-84
2022/04/23 08:30:36;;;;;;;38.33;19.63;;;8.30;99.90;;;;;;5042296;28;20041;-79
2022/04/23 08:33:03;;;;;;;34.83;19.60;;;8.20;99.90;;;;;;5078747;28;20053;-85
2022/04/23 08:35:30;;;;;;;34.08;18.42;;;8.30;99.90;;;;;;5052820;28;20033;-84
2022/04/23 08:37:55;;;;;;;43.33;20.08;;;8.30;99.90;;;;;;5045465;28;20058;-84
2022/04/23 08:40:22;;;;;;;45.55;21.13;;;8.30;99.90;;;;;;5054918;28;20029;-86
2022/04/23 08:42:47;;;;;;;43.30;18.38;;;8.40;99.90;;;;;;5051750;28;20104;-84
2022/04/23 08:45:13;;;;;;;39.60;22.92;;;8.40;99.90;;;;;;5050742;28;20521;-83
2022/04/23 08:47:46;;;;;;;40.45;22.45;;;8.50;99.90;;;;;;5047554;28;20028;-84
2022/04/23 08:50:13;;;;;;;41.10;22.15;;;8.50;99.90;;;;;;5071316;28;20024;-83
2022/04/23 08:52:43;;;;;;;39.35;20.92;;;8.60;99.90;;;;;;5052914;28;20037;-84
2022/04/23 08:55:14;;;;;;;46.10;23.83;;;8.60;99.90;;;;;;5067669;28;20035;-84
2022/04/23 08:57:41;;;;;;;40.05;20.13;;;8.50;99.90;;;;;;5051238;28;20506;-85
2022/04/23 09:00:08;;;;;;;44.08;22.48;;;8.70;99.90;;;;;;5044548;28;20637;-83
2022/04/23 09:02:37;;;;;;;32.08;18.02;;;8.50;99.90;;;;;;5068802;28;20033;-83
2022/04/23 09:05:04;;;;;;;41.80;22.52;;;8.50;99.90;;;;;;5048036;28;20132;-84
2022/04/23 09:07:30;;;;;;;42.67;21.40;;;8.60;99.90;;;;;;5047291;28;20035;-88
2022/04/23 09:09:57;;;;;;;37.40;19.65;;;8.80;99.90;;;;;;5047244;28;20029;-86
2022/04/23 09:12:24;;;;;;;38.45;19.33;;;8.70;99.90;;;;;;5059977;28;20075;-83
2022/04/23 09:15:04;;;;;;;42.17;22.17;;;8.70;99.90;;;;;;5048137;28;20170;-86
2022/04/23 09:26:14;;;;;;;44.25;22.63;;;8.70;99.90;;;;;;5014293;28;20061;-89
2022/04/23 09:28:45;;;;;;;44.88;23.08;;;8.70;99.90;;;;;;5042636;28;20496;-90
2022/04/23 09:31:13;;;;;;;43.53;19.73;;;8.70;99.90;;;;;;5042338;28;20037;-89
2022/04/23 09:33:51;;;;;;;42.05;22.35;;;8.90;99.90;;;;;;5054758;28;20053;-87
2022/04/23 09:36:17;;;;;;;41.80;19.42;;;9.00;99.90;;;;;;5067603;28;20008;-89
2022/04/23 09:38:43;;;;;;;39.28;21.88;;;9.10;99.90;;;;;;5049432;28;20033;-91
2022/04/23 09:41:19;;;;;;;37.00;20.17;;;9.00;99.90;;;;;;5052231;28;20577;-91
2022/04/23 09:43:46;;;;;;;39.42;19.73;;;9.10;99.90;;;;;;5054968;28;20021;-83
2022/04/23 09:46:12;;;;;;;40.35;20.65;;;9.10;99.90;;;;;;5053282;28;20032;-91
2022/04/23 10:00:06;;;;;;;41.97;21.38;;;9.30;99.90;;;;;;5110767;27;20891;-85
2022/04/23 10:02:32;;;;;;;35.30;18.63;;;9.10;99.90;;;;;;5070376;28;20047;-87
2022/04/23 10:05:01;;;;;;;41.30;20.42;;;9.00;99.90;;;;;;5082321;28;20032;-82
2022/04/23 10:07:29;;;;;;;42.80;21.80;;;9.00;99.90;;;;;;5074816;28;20655;-86
2022/04/23 10:10:00;;;;;;;42.22;24.10;;;9.00;99.90;;;;;;5061857;28;20032;-86
2022/04/23 10:12:27;;;;;;;40.08;20.75;;;8.90;99.90;;;;;;5072917;28;20033;-86
2022/04/23 10:14:59;;;;;;;39.38;19.65;;;9.20;99.90;;;;;;5070497;28;20036;-87
2022/04/23 10:17:28;;;;;;;40.63;21.52;;;9.20;99.90;;;;;;5046871;28;20052;-87
2022/04/23 10:19:54;;;;;;;42.92;20.67;;;9.20;99.90;;;;;;5078624;28;20213;-87
2022/04/23 10:22:28;;;;;;;45.80;20.92;;;9.20;99.90;;;;;;5046531;28;20029;-85
2022/04/23 10:25:45;;;;;;;44.38;21.13;;;9.30;99.90;;;;;;5094611;28;20071;-86
2022/04/23 10:28:16;;;;;;;38.05;20.67;;;9.50;99.90;;;;;;5074745;28;20506;-85
2022/04/23 10:30:46;;;;;;;36.38;17.27;;;9.40;99.90;;;;;;5080425;28;20434;-88
2022/04/23 10:33:27;;;;;;;40.00;20.25;;;9.50;99.90;;;;;;5068335;28;20026;-86
2022/04/23 10:36:10;;;;;;;38.20;19.10;;;9.60;99.90;;;;;;5066014;28;20028;-83
2022/04/23 10:38:42;;;;;;;33.20;17.90;;;9.70;99.90;;;;;;5074759;28;20039;-84
2022/04/23 10:41:10;;;;;;;34.53;18.67;;;9.70;99.90;;;;;;5056953;28;20057;-84
2022/04/23 10:43:46;;;;;;;35.05;17.02;;;9.60;99.90;;;;;;5051339;28;20480;-83
2022/04/23 10:46:38;;;;;;;33.53;17.10;;;9.50;99.90;;;;;;5078863;28;20025;-84
2022/04/23 10:49:16;;;;;;;38.03;20.13;;;9.50;99.90;;;;;;5079638;28;20063;-82
2022/04/23 10:51:46;;;;;;;37.00;20.05;;;9.70;99.90;;;;;;5085584;28;20020;-85
2022/04/23 10:54:12;;;;;;;34.97;17.15;;;9.80;99.90;;;;;;5080705;28;20099;-85
2022/04/23 10:56:38;;;;;;;36.80;19.30;;;9.90;99.90;;;;;;5096680;28;20067;-85
2022/04/23 10:59:24;;;;;;;34.80;18.02;;;10.20;99.90;;;;;;5080912;28;20076;-85
2022/04/23 11:01:50;;;;;;;37.78;19.52;;;10.10;99.90;;;;;;5050037;28;20174;-86
2022/04/23 11:04:19;;;;;;;41.42;21.00;;;10.00;99.90;;;;;;5061585;28;20028;-85
2022/04/23 11:12:53;;;;;;;37.00;17.40;;;10.30;99.90;;;;;;5053017;28;20021;-81
2022/04/23 11:15:20;;;;;;;40.38;18.60;;;10.30;99.90;;;;;;5056456;28;20112;-82
2022/04/23 11:17:49;;;;;;;39.22;18.88;;;10.30;99.90;;;;;;5073757;28;20041;-85
2022/04/23 11:20:27;;;;;;;41.90;20.50;;;10.50;99.90;;;;;;5051068;28;20427;-85
2022/04/23 11:22:53;;;;;;;36.65;19.88;;;10.80;99.90;;;;;;5053747;28;20052;-82
2022/04/23 11:25:19;;;;;;;40.60;20.83;;;11.10;99.90;;;;;;5056611;28;20049;-82
2022/04/23 11:27:48;;;;;;;36.55;19.17;;;11.30;99.90;;;;;;5048741;28;20436;-82
2022/04/23 11:30:14;;;;;;;35.83;18.35;;;11.10;99.90;;;;;;5051309;28;20086;-82
2022/04/23 11:32:40;;;;;;;35.75;19.33;;;10.80;99.90;;;;;;5055610;28;20032;-82
2022/04/23 11:35:07;;;;;;;38.47;19.58;;;11.10;99.90;;;;;;5060905;28;20061;-81
2022/04/23 11:37:34;;;;;;;30.83;16.85;;;11.00;99.90;;;;;;5032990;28;20033;-85
2022/04/23 11:40:11;;;;;;;35.80;21.15;;;10.90;99.90;;;;;;5031483;28;20120;-85
2022/04/23 11:42:41;;;;;;;36.30;18.90;;;10.90;99.90;;;;;;5060190;28;20017;-84
2022/04/23 11:45:09;;;;;;;32.83;16.67;;;11.00;99.90;;;;;;5068111;28;20043;-84
2022/04/23 11:47:35;;;;;;;34.17;17.73;;;11.10;99.90;;;;;;5057686;28;20025;-85
2022/04/23 11:50:15;;;;;;;34.55;16.88;;;11.00;99.90;;;;;;5054250;28;20086;-84
2022/04/23 11:52:43;;;;;;;34.80;17.77;;;11.20;99.90;;;;;;5067003;28;20029;-81
2022/04/23 11:55:20;;;;;;;34.38;18.52;;;11.40;99.90;;;;;;5060481;28;20016;-84
2022/04/23 11:57:59;;;;;;;29.08;16.73;;;11.50;99.90;;;;;;5063871;28;20037;-85
2022/04/23 12:00:26;;;;;;;31.25;16.33;;;11.50;99.90;;;;;;5050580;28;20040;-85
2022/04/23 12:02:53;;;;;;;30.25;17.13;;;11.30;99.90;;;;;;5057349;28;20033;-86
2022/04/23 12:05:23;;;;;;;36.63;17.00;;;11.20;99.90;;;;;;5062141;28;20044;-86
2022/04/23 12:07:49;;;;;;;31.38;17.40;;;11.00;99.90;;;;;;5080099;28;20032;-85
2022/04/23 12:10:14;;;;;;;32.63;17.67;;;11.00;99.90;;;;;;5055572;28;20101;-85
2022/04/23 12:12:42;;;;;;;34.10;18.13;;;11.20;99.90;;;;;;5045464;28;20033;-85
2022/04/23 12:15:14;;;;;;;32.47;16.73;;;11.20;99.90;;;;;;5051814;28;20100;-85
2022/04/23 12:17:47;;;;;;;34.10;17.45;;;11.40;99.90;;;;;;5026260;28;20098;-85
2022/04/23 12:20:15;;;;;;;29.40;16.38;;;11.60;99.90;;;;;;5051915;28;20555;-85
2022/04/23 12:23:00;;;;;;;32.15;17.67;;;11.60;99.90;;;;;;5060321;28;20051;-84
2022/04/23 12:25:33;;;;;;;32.90;17.13;;;11.70;99.90;;;;;;5048119;28;20018;-86
2022/04/23 12:28:00;;;;;;;36.55;17.85;;;11.80;99.90;;;;;;5051300;28;20025;-85
2022/04/23 12:41:37;;;;;;;32.63;17.15;;;11.50;99.90;;;;;;5062645;28;20093;-83
2022/04/23 12:44:19;;;;;;;33.75;17.23;;;11.70;99.90;;;;;;5050419;28;20472;-83
2022/04/23 12:47:06;;;;;;;38.05;19.77;;;11.60;99.80;;;;;;5066571;28;20024;-83
2022/04/23 12:49:48;;;;;;;36.33;17.55;;;11.70;99.90;;;;;;5068924;28;20159;-82
2022/04/23 12:52:28;;;;;;;32.58;18.20;;;11.80;99.60;;;;;;5068805;28;20043;-81
2022/04/23 12:55:25;;;;;;;31.10;16.98;;;11.90;99.90;;;;;;5072072;28;20100;-84
2022/04/23 12:57:53;;;;;;;35.83;16.23;;;12.20;99.60;;;;;;5062531;28;20056;-84
2022/04/23 13:00:23;;;;;;;35.08;16.85;;;12.60;98.00;;;;;;5048643;28;20484;-85
2022/04/23 13:02:57;;;;;;;30.77;16.08;;;12.80;96.70;;;;;;5054302;28;20075;-84
2022/04/23 13:05:24;;;;;;;32.72;17.50;;;13.00;95.10;;;;;;5054834;28;20033;-85
2022/04/23 13:10:35;;;;;;;34.33;16.67;;;13.90;93.90;;;;;;5037822;28;20024;-84
2022/04/23 13:13:02;;;;;;;30.35;15.90;;;14.10;92.50;;;;;;5058380;28;20027;-85
2022/04/23 13:15:28;;;;;;;27.70;15.77;;;14.00;92.80;;;;;;5062076;28;20672;-84
2022/04/23 13:17:54;;;;;;;31.75;15.68;;;14.10;93.00;;;;;;5071190;28;20028;-85
2022/04/23 13:20:20;;;;;;;30.10;17.40;;;14.00;93.60;;;;;;5062222;28;20037;-85
2022/04/23 13:22:47;;;;;;;29.45;15.70;;;14.20;93.00;;;;;;5084801;28;20009;-84
2022/04/23 13:25:14;;;;;;;28.52;15.93;;;14.70;91.70;;;;;;5080821;28;20017;-85
2022/04/23 13:27:41;;;;;;;30.25;15.57;;;15.10;92.40;;;;;;5070259;28;20077;-85